createdAt,value
2018-03-14T00:00:26.277Z,8.00
2018-03-14T00:02:55.676Z,6.10
2018-03-14T00:05:25.094Z,7.60
2018-03-14T00:07:54.514Z,8.70
2018-03-14T00:10:23.940Z,8.45
2018-03-14T00:12:53.363Z,6.85
2018-03-14T00:15:22.799Z,9.00
2018-03-14T00:17:52.236Z,9.55
2018-03-14T00:20:21.666Z,8.93
2018-03-14T00:22:51.052Z,8.55
2018-03-14T00:25:20.487Z,7.60
2018-03-14T00:27:49.915Z,7.00
2018-03-14T00:30:19.293Z,7.05
2018-03-14T00:32:48.694Z,6.32
2018-03-14T00:35:18.134Z,8.27
2018-03-14T00:37:47.553Z,5.78
2018-03-14T00:40:16.978Z,6.05
2018-03-14T00:42:46.393Z,6.78
2018-03-14T00:45:15.776Z,5.97
2018-03-14T00:47:45.205Z,5.70
2018-03-14T00:50:14.621Z,7.87
2018-03-14T00:52:44.022Z,5.03
2018-03-14T00:55:13.455Z,6.45
2018-03-14T00:57:42.884Z,5.53
2018-03-14T01:00:12.320Z,5.07
2018-03-14T01:02:41.767Z,4.47
2018-03-14T01:05:11.185Z,3.72
2018-03-14T01:07:40.620Z,5.37
2018-03-14T01:10:10.029Z,4.82
2018-03-14T01:12:39.455Z,6.10
2018-03-14T01:15:08.901Z,4.95
2018-03-14T01:17:38.283Z,5.85
2018-03-14T01:20:07.722Z,7.18
2018-03-14T01:22:37.121Z,5.47
2018-03-14T01:25:06.543Z,5.07
2018-03-14T01:27:35.926Z,5.97
2018-03-14T01:30:05.373Z,7.30
2018-03-14T01:32:34.766Z,6.62
2018-03-14T01:35:04.250Z,5.20
2018-03-14T01:37:33.633Z,3.97
2018-03-14T01:40:03.038Z,5.05
2018-03-14T01:42:32.435Z,6.12
2018-03-14T01:45:01.867Z,4.37
2018-03-14T01:47:31.290Z,5.55
2018-03-14T01:50:00.704Z,5.50
2018-03-14T01:52:30.115Z,3.75
2018-03-14T01:54:59.545Z,4.30
2018-03-14T01:57:28.930Z,3.80
2018-03-14T01:59:58.395Z,5.87
2018-03-14T02:02:27.801Z,4.55
2018-03-14T02:04:57.205Z,3.72
2018-03-14T02:07:26.644Z,5.60
2018-03-14T02:09:56.040Z,6.00
2018-03-14T02:12:25.475Z,3.75
2018-03-14T02:14:54.867Z,4.60
2018-03-14T02:17:24.258Z,6.25
2018-03-14T02:19:53.643Z,4.70
2018-03-14T02:22:23.080Z,4.43
2018-03-14T02:24:52.505Z,3.47
2018-03-14T02:27:21.926Z,4.15
2018-03-14T02:29:51.413Z,8.73
2018-03-14T02:32:21.483Z,4.70
2018-03-14T02:34:50.894Z,4.05
2018-03-14T02:37:21.166Z,4.25
2018-03-14T02:39:50.540Z,5.10
2018-03-14T02:42:19.987Z,3.35
2018-03-14T02:44:49.422Z,5.07
2018-03-14T02:47:18.800Z,4.37
2018-03-14T02:49:48.212Z,4.82
2018-03-14T02:52:17.601Z,5.87
2018-03-14T02:54:47.000Z,6.30
2018-03-14T02:57:16.414Z,4.40
2018-03-14T02:59:45.832Z,5.40
2018-03-14T03:02:15.268Z,6.28
2018-03-14T03:04:44.667Z,6.53
2018-03-14T03:07:14.064Z,8.07
2018-03-14T03:09:43.465Z,4.95
2018-03-14T03:12:12.880Z,5.82
2018-03-14T03:14:42.302Z,6.68
2018-03-14T03:17:11.714Z,6.00
2018-03-14T03:19:41.093Z,5.15
2018-03-14T03:22:10.510Z,5.72
2018-03-14T03:24:39.953Z,5.07
2018-03-14T03:27:09.324Z,4.75
2018-03-14T03:29:38.746Z,6.68
2018-03-14T03:32:08.127Z,5.20
2018-03-14T03:34:37.556Z,7.05
2018-03-14T03:37:07.010Z,6.35
2018-03-14T03:39:36.417Z,5.82
2018-03-14T03:42:05.817Z,5.30
2018-03-14T03:44:35.264Z,6.12
2018-03-14T03:47:04.634Z,4.32
2018-03-14T03:49:34.051Z,5.60
2018-03-14T03:52:03.453Z,4.30
2018-03-14T03:54:32.864Z,5.40
2018-03-14T03:57:02.271Z,6.95
2018-03-14T03:59:31.647Z,14.18
2018-03-14T04:02:01.095Z,8.15
2018-03-14T04:04:30.530Z,7.35
2018-03-14T04:07:00.003Z,4.62
2018-03-14T04:09:29.387Z,4.90
2018-03-14T04:11:58.803Z,4.65
2018-03-14T04:14:28.213Z,3.92
2018-03-14T04:16:57.605Z,3.50
2018-03-14T04:19:27.015Z,5.03
2018-03-14T04:21:56.455Z,4.95
2018-03-14T04:24:25.870Z,8.40
2018-03-14T04:26:55.242Z,5.95
2018-03-14T04:29:24.670Z,6.32
2018-03-14T04:31:54.058Z,6.05
2018-03-14T04:34:23.487Z,6.80
2018-03-14T04:36:52.914Z,6.93
2018-03-14T04:39:22.288Z,4.90
2018-03-14T04:41:51.736Z,5.62
2018-03-14T04:44:21.142Z,6.97
2018-03-14T04:46:50.596Z,6.43
2018-03-14T04:49:19.984Z,12.82
2018-03-14T04:51:49.404Z,9.93
2018-03-14T04:54:18.800Z,8.95
2018-03-14T04:56:48.224Z,6.72
2018-03-14T04:59:17.608Z,7.50
2018-03-14T05:01:47.023Z,5.95
2018-03-14T05:04:16.446Z,9.43
2018-03-14T05:06:45.854Z,7.70
2018-03-14T05:09:15.268Z,7.07
2018-03-14T05:11:44.652Z,5.10
2018-03-14T05:14:14.116Z,7.18
2018-03-14T05:16:43.449Z,10.55
2018-03-14T05:19:12.869Z,7.85
2018-03-14T05:21:42.256Z,9.45
2018-03-14T05:24:11.666Z,6.43
2018-03-14T05:26:41.061Z,8.25
2018-03-14T05:29:10.457Z,7.35
2018-03-14T05:31:39.875Z,9.30
2018-03-14T05:34:09.253Z,8.80
2018-03-14T05:36:38.680Z,6.95
2018-03-14T05:39:08.115Z,8.50
2018-03-14T05:41:37.523Z,9.70
2018-03-14T05:44:06.905Z,6.95
2018-03-14T05:46:36.318Z,6.70
2018-03-14T05:49:05.744Z,4.93
2018-03-14T05:51:35.168Z,6.25
2018-03-14T05:54:04.554Z,9.25
2018-03-14T05:56:33.989Z,6.97
2018-03-14T05:59:03.425Z,7.62
2018-03-14T06:01:32.874Z,6.03
2018-03-14T06:04:02.246Z,6.00
2018-03-14T06:06:31.688Z,6.40
2018-03-14T06:09:01.122Z,5.82
2018-03-14T06:11:30.487Z,4.87
2018-03-14T06:13:59.902Z,7.28
2018-03-14T06:16:29.324Z,6.12
2018-03-14T06:18:58.739Z,7.62
2018-03-14T06:21:28.146Z,7.28
2018-03-14T06:23:57.583Z,8.05
2018-03-14T06:26:26.984Z,9.00
2018-03-14T06:28:56.407Z,9.48
2018-03-14T06:31:25.816Z,12.40
2018-03-14T06:33:55.235Z,6.95
2018-03-14T06:36:24.648Z,5.62
2018-03-14T06:38:54.027Z,6.93
2018-03-14T06:41:23.455Z,10.45
2018-03-14T06:43:52.859Z,8.40
2018-03-14T06:46:22.333Z,7.62
2018-03-14T06:48:51.728Z,5.70
2018-03-14T06:51:21.156Z,6.03
2018-03-14T06:53:50.516Z,5.43
2018-03-14T06:56:19.929Z,6.00
2018-03-14T06:58:55.333Z,5.90
2018-03-14T07:01:31.462Z,4.70
2018-03-14T07:04:06.871Z,9.45
2018-03-14T07:06:36.313Z,5.62
2018-03-14T07:09:05.729Z,6.90
2018-03-14T07:11:35.188Z,6.00
2018-03-14T07:14:04.593Z,6.85
2018-03-14T07:16:34.037Z,4.95
2018-03-14T07:19:03.459Z,4.60
2018-03-14T07:21:32.925Z,6.15
2018-03-14T07:24:02.341Z,9.75
2018-03-14T07:26:31.715Z,5.37
2018-03-14T07:29:01.164Z,7.37
2018-03-14T07:31:30.573Z,8.15
2018-03-14T07:33:59.977Z,9.48
2018-03-14T07:36:29.417Z,8.05
2018-03-14T07:38:58.797Z,9.88
2018-03-14T07:41:28.232Z,5.87
2018-03-14T07:43:57.647Z,4.57
2018-03-14T07:46:27.037Z,5.78
2018-03-14T07:48:56.452Z,7.50
2018-03-14T07:51:25.867Z,5.75
2018-03-14T07:53:55.291Z,5.30
2018-03-14T07:56:24.696Z,7.62
2018-03-14T07:58:54.170Z,5.62
2018-03-14T08:01:23.609Z,6.82
2018-03-14T08:03:53.046Z,5.00
2018-03-14T08:06:22.419Z,4.40
2018-03-14T08:08:51.845Z,8.40
2018-03-14T08:11:21.237Z,5.32
2018-03-14T08:13:50.839Z,10.13
2018-03-14T08:16:20.061Z,4.28
2018-03-14T08:18:49.492Z,7.00
2018-03-14T08:21:18.914Z,6.28
2018-03-14T08:23:48.281Z,8.90
2018-03-14T08:26:17.675Z,9.00
2018-03-14T08:28:47.084Z,5.22
2018-03-14T08:31:16.498Z,5.95
2018-03-14T08:33:45.920Z,6.05
2018-03-14T08:36:15.310Z,7.03
2018-03-14T08:38:44.692Z,8.05
2018-03-14T08:41:14.116Z,5.90
2018-03-14T08:43:43.502Z,5.95
2018-03-14T08:46:12.927Z,5.15
2018-03-14T08:48:42.339Z,7.35
2018-03-14T08:51:11.761Z,5.90
2018-03-14T08:53:41.181Z,5.60
2018-03-14T08:56:10.582Z,5.95
2018-03-14T08:58:40.017Z,8.68
2018-03-14T09:01:09.408Z,7.22
2018-03-14T09:03:38.814Z,9.80
2018-03-14T09:06:08.237Z,7.25
2018-03-14T09:08:37.668Z,6.93
2018-03-14T09:13:47.757Z,6.47
2018-03-14T09:16:17.200Z,5.05
2018-03-14T09:18:46.629Z,8.90
2018-03-14T09:21:16.115Z,11.30
2018-03-14T09:23:45.532Z,8.43
2018-03-14T09:26:14.917Z,7.78
2018-03-14T09:28:44.332Z,9.98
2018-03-14T09:31:13.737Z,10.23
2018-03-14T09:33:43.155Z,9.63
2018-03-14T09:36:12.538Z,10.77
2018-03-14T09:38:41.954Z,6.85
2018-03-14T09:41:12.151Z,7.10
2018-03-14T09:43:41.548Z,6.68
2018-03-14T09:46:10.926Z,7.12
2018-03-14T09:48:40.400Z,6.85
2018-03-14T09:51:09.798Z,7.25
2018-03-14T09:53:39.176Z,5.20
2018-03-14T09:56:08.588Z,7.30
2018-03-14T09:58:38.005Z,7.50
2018-03-14T10:01:07.454Z,5.72
2018-03-14T10:03:36.846Z,9.98
2018-03-14T10:06:06.263Z,7.03
2018-03-14T10:08:35.699Z,6.97
2018-03-14T10:11:05.081Z,11.02
2018-03-14T10:13:34.506Z,8.63
2018-03-14T10:16:03.910Z,7.22
2018-03-14T10:18:33.322Z,6.12
2018-03-14T10:21:02.740Z,4.50
2018-03-14T10:23:32.144Z,5.95
2018-03-14T10:26:01.575Z,5.97
2018-03-14T10:28:31.051Z,4.25
2018-03-14T10:31:00.415Z,3.80
2018-03-14T10:33:29.855Z,3.97
2018-03-14T10:35:59.235Z,3.60
2018-03-14T10:38:28.679Z,5.45
2018-03-14T10:40:58.086Z,2.83
2018-03-14T10:43:27.508Z,2.50
2018-03-14T10:45:57.115Z,6.35
2018-03-14T10:48:26.546Z,5.78
2018-03-14T10:50:55.927Z,4.62
2018-03-14T10:53:25.353Z,2.65
2018-03-14T10:55:54.781Z,3.80
2018-03-14T10:58:24.176Z,2.58
2018-03-14T11:00:56.539Z,3.08
2018-03-14T11:03:31.689Z,4.05
2018-03-14T11:06:01.032Z,3.83
2018-03-14T11:08:30.452Z,4.03
2018-03-14T11:10:59.839Z,3.30
2018-03-14T11:13:29.256Z,4.22
2018-03-14T11:15:58.673Z,2.87
2018-03-14T11:18:28.119Z,5.60
2018-03-14T11:20:57.524Z,4.82
2018-03-14T11:23:26.939Z,5.68
2018-03-14T11:25:56.346Z,7.12
2018-03-14T11:28:25.744Z,7.40
2018-03-14T11:30:55.185Z,6.82
2018-03-14T11:33:24.636Z,6.07
2018-03-14T11:35:54.088Z,6.00
2018-03-14T11:38:23.540Z,5.57
2018-03-14T11:40:52.928Z,6.47
2018-03-14T11:43:22.346Z,7.22
2018-03-14T11:45:51.784Z,7.80
2018-03-14T11:48:21.206Z,5.03
2018-03-14T11:50:50.581Z,5.72
2018-03-14T11:53:20.001Z,5.90
2018-03-14T11:55:49.413Z,11.48
2018-03-14T11:58:18.800Z,5.95
2018-03-14T12:00:48.247Z,8.68
2018-03-14T12:03:17.653Z,8.25
2018-03-14T12:05:47.120Z,6.87
2018-03-14T12:08:16.504Z,6.55
2018-03-14T12:10:45.923Z,7.05
2018-03-14T12:13:15.333Z,6.60
2018-03-14T12:15:44.758Z,6.10
2018-03-14T12:18:14.163Z,10.05
2018-03-14T12:20:44.083Z,6.72
2018-03-14T12:23:13.886Z,5.75
2018-03-14T12:25:44.154Z,7.28
2018-03-14T12:28:13.948Z,8.05
2018-03-14T12:30:43.534Z,14.98
2018-03-14T12:33:13.145Z,7.87
2018-03-14T12:35:42.582Z,8.40
2018-03-14T12:38:12.040Z,7.03
2018-03-14T12:40:41.443Z,11.52
2018-03-14T12:43:10.915Z,11.02
2018-03-14T12:45:40.341Z,8.48
2018-03-14T12:48:09.735Z,11.15
2018-03-14T12:50:39.152Z,8.07
2018-03-14T12:53:08.583Z,7.50
2018-03-14T12:55:37.990Z,18.37
2018-03-14T12:58:07.425Z,12.77
2018-03-14T13:00:36.834Z,7.18
2018-03-14T13:03:06.229Z,10.05
2018-03-14T13:05:35.702Z,8.70
2018-03-14T13:08:05.076Z,6.35
2018-03-14T13:10:34.508Z,6.82
2018-03-14T13:13:03.935Z,11.23
2018-03-14T13:15:33.359Z,5.57
2018-03-14T13:18:02.784Z,9.50
2018-03-14T13:20:33.010Z,6.72
2018-03-14T13:23:02.367Z,4.87
2018-03-14T13:25:31.813Z,4.47
2018-03-14T13:28:01.228Z,6.10
2018-03-14T13:30:30.716Z,5.80
2018-03-14T13:33:00.168Z,5.53
2018-03-14T13:35:29.581Z,7.12
2018-03-14T13:37:58.983Z,9.93
2018-03-14T13:40:28.423Z,3.55
2018-03-14T13:42:57.788Z,5.40
2018-03-14T13:45:27.199Z,5.75
2018-03-14T13:47:56.636Z,4.60
2018-03-14T13:50:26.024Z,3.97
2018-03-14T13:52:55.470Z,4.82
2018-03-14T13:55:24.852Z,4.03
2018-03-14T13:57:54.269Z,3.55
2018-03-14T14:00:23.688Z,4.07
2018-03-14T14:02:53.087Z,3.83
2018-03-14T14:05:22.514Z,5.00
2018-03-14T14:07:51.923Z,9.65
2018-03-14T14:10:21.307Z,9.10
2018-03-14T14:12:50.706Z,4.80
2018-03-14T14:15:20.121Z,3.78
2018-03-14T14:17:49.500Z,3.35
2018-03-14T14:20:18.926Z,4.37
2018-03-14T14:22:48.376Z,3.00
2018-03-14T14:25:17.975Z,4.20
2018-03-14T14:27:47.585Z,4.87
2018-03-14T14:30:17.318Z,3.58
2018-03-14T14:32:47.313Z,3.00
2018-03-14T14:35:17.111Z,3.67
2018-03-14T14:37:46.559Z,3.25
2018-03-14T14:40:15.968Z,3.12
2018-03-14T14:42:45.378Z,3.45
2018-03-14T14:45:14.828Z,5.00
2018-03-14T14:47:44.270Z,3.65
2018-03-14T14:50:13.729Z,5.53
2018-03-14T14:52:43.123Z,3.87
2018-03-14T14:55:12.548Z,4.65
2018-03-14T14:57:41.953Z,9.07
2018-03-14T15:00:11.348Z,3.30
2018-03-14T15:02:40.763Z,5.72
2018-03-14T15:05:10.217Z,3.58
2018-03-14T15:07:39.693Z,3.05
2018-03-14T15:10:09.102Z,3.87
2018-03-14T15:12:38.524Z,3.60
2018-03-14T15:15:07.961Z,2.95
2018-03-14T15:17:37.371Z,3.20
2018-03-14T15:20:06.861Z,4.18
2018-03-14T15:22:36.264Z,3.22
2018-03-14T15:25:05.701Z,2.97
2018-03-14T15:27:35.127Z,4.75
2018-03-14T15:30:04.514Z,4.37
2018-03-14T15:32:33.908Z,3.90
2018-03-14T15:35:03.297Z,2.78
2018-03-14T15:37:32.716Z,2.85
2018-03-14T15:40:02.134Z,3.67
2018-03-14T15:42:31.606Z,3.35
2018-03-14T15:45:01.112Z,4.78
2018-03-14T15:47:30.549Z,3.70
2018-03-14T15:49:59.961Z,3.17
2018-03-14T15:52:29.358Z,6.10
2018-03-14T15:54:58.769Z,4.07
2018-03-14T15:57:28.220Z,4.00
2018-03-14T15:59:57.651Z,3.75
2018-03-14T16:02:27.038Z,4.47
2018-03-14T16:04:56.477Z,4.12
2018-03-14T16:07:25.881Z,4.28
2018-03-14T16:09:55.269Z,4.20
2018-03-14T16:12:24.692Z,4.10
2018-03-14T16:14:54.151Z,4.75
2018-03-14T16:17:23.577Z,5.07
2018-03-14T16:19:52.957Z,6.43
2018-03-14T16:22:22.395Z,4.68
2018-03-14T16:24:51.794Z,26.62
2018-03-14T16:27:21.205Z,21.30
2018-03-14T16:29:50.596Z,8.95
2018-03-14T16:32:20.156Z,8.57
2018-03-14T16:34:49.545Z,7.07
2018-03-14T16:37:18.958Z,5.72
2018-03-14T16:39:48.387Z,10.93
2018-03-14T16:42:17.804Z,8.90
2018-03-14T16:44:47.250Z,8.70
2018-03-14T16:47:16.655Z,6.10
2018-03-14T16:49:46.034Z,7.50
2018-03-14T16:52:15.478Z,6.00
2018-03-14T16:54:44.856Z,4.72
2018-03-14T16:57:14.293Z,5.25
2018-03-14T16:59:43.692Z,6.22
2018-03-14T17:02:13.130Z,8.07
2018-03-14T17:04:42.566Z,10.02
2018-03-14T17:07:12.025Z,6.85
2018-03-14T17:09:41.454Z,4.78
2018-03-14T17:12:10.953Z,6.50
2018-03-14T17:14:40.391Z,5.70
2018-03-14T17:17:09.876Z,6.50
2018-03-14T17:19:39.288Z,5.35
2018-03-14T17:22:08.665Z,8.23
2018-03-14T17:24:38.077Z,8.20
2018-03-14T17:27:07.465Z,6.28
2018-03-14T17:29:36.894Z,7.07
2018-03-14T17:32:06.337Z,4.30
2018-03-14T17:34:35.746Z,7.12
2018-03-14T17:37:05.166Z,6.60
2018-03-14T17:39:34.630Z,10.02
2018-03-14T17:42:04.050Z,13.00
2018-03-14T17:44:33.504Z,10.80
2018-03-14T17:47:02.953Z,12.82
2018-03-14T17:49:32.384Z,10.23
2018-03-14T17:52:01.783Z,7.18
2018-03-14T17:54:31.211Z,39.70
2018-03-14T17:57:00.673Z,49.70
2018-03-14T17:59:30.103Z,22.15
2018-03-14T18:01:59.499Z,11.85
2018-03-14T18:04:28.925Z,8.95
2018-03-14T18:06:58.351Z,8.60
2018-03-14T18:09:27.778Z,6.45
2018-03-14T18:11:57.193Z,5.00
2018-03-14T18:14:26.627Z,5.18
2018-03-14T18:16:56.074Z,5.80
2018-03-14T18:19:25.592Z,7.80
2018-03-14T18:21:54.955Z,7.75
2018-03-14T18:24:24.352Z,6.30
2018-03-14T18:26:53.795Z,9.57
2018-03-14T18:29:23.256Z,5.30
2018-03-14T18:31:52.650Z,7.65
2018-03-14T18:34:22.098Z,5.68
2018-03-14T18:36:51.515Z,6.53
2018-03-14T18:39:20.921Z,5.68
2018-03-14T18:41:50.350Z,10.27
2018-03-14T18:44:19.806Z,8.07
2018-03-14T18:46:49.207Z,4.43
2018-03-14T18:49:18.766Z,9.48
2018-03-14T18:51:49.363Z,9.63
2018-03-14T18:54:18.808Z,7.00
2018-03-14T18:56:48.204Z,12.95
2018-03-14T18:59:17.632Z,10.40
2018-03-14T19:01:47.154Z,10.95
2018-03-14T19:04:16.619Z,6.45
2018-03-14T19:06:46.046Z,7.90
2018-03-14T19:09:15.439Z,5.45
2018-03-14T19:11:44.899Z,4.30
2018-03-14T19:14:14.342Z,5.25
2018-03-14T19:16:43.774Z,6.95
2018-03-14T19:19:13.215Z,7.00
2018-03-14T19:21:42.676Z,7.95
2018-03-14T19:24:12.080Z,7.18
2018-03-14T19:26:41.541Z,8.45
2018-03-14T19:29:10.952Z,9.00
2018-03-14T19:31:40.426Z,9.40
2018-03-14T19:34:09.839Z,6.70
2018-03-14T19:36:39.286Z,8.27
2018-03-14T19:39:08.702Z,6.03
2018-03-14T19:41:38.162Z,7.90
2018-03-14T19:44:07.601Z,6.80
2018-03-14T19:46:37.024Z,8.93
2018-03-14T19:49:06.465Z,7.53
2018-03-14T19:51:35.858Z,5.12
2018-03-14T19:54:05.321Z,11.40
2018-03-14T19:56:34.715Z,9.65
2018-03-14T19:59:04.176Z,10.68
2018-03-14T20:01:33.589Z,10.75
2018-03-14T20:04:03.042Z,7.72
2018-03-14T20:06:32.507Z,8.40
2018-03-14T20:09:02.062Z,10.60
2018-03-14T20:11:31.382Z,7.55
2018-03-14T20:14:00.829Z,7.50
2018-03-14T20:16:30.291Z,12.80
2018-03-14T20:18:59.740Z,8.00
2018-03-14T20:21:29.140Z,6.62
2018-03-14T20:23:58.650Z,6.57
2018-03-14T20:26:28.115Z,8.88
2018-03-14T20:28:57.553Z,5.72
2018-03-14T20:31:27.026Z,9.75
2018-03-14T20:33:56.419Z,7.05
2018-03-14T20:36:26.329Z,8.70
2018-03-14T20:38:55.834Z,9.82
2018-03-14T20:41:25.252Z,10.55
2018-03-14T20:43:54.956Z,8.25
2018-03-14T20:46:24.362Z,8.10
2018-03-14T20:48:53.800Z,7.80
2018-03-14T20:51:23.219Z,8.95
2018-03-14T20:53:52.615Z,7.55
2018-03-14T20:56:22.041Z,7.90
2018-03-14T20:58:51.482Z,14.73
2018-03-14T21:01:20.935Z,11.50
2018-03-14T21:03:50.336Z,10.90
2018-03-14T21:06:19.793Z,12.30
2018-03-14T21:08:49.203Z,14.43
2018-03-14T21:11:18.602Z,16.20
2018-03-14T21:13:48.008Z,15.73
2018-03-14T21:16:17.458Z,14.38
2018-03-14T21:18:46.824Z,9.27
2018-03-14T21:21:16.266Z,10.20
2018-03-14T21:23:45.710Z,10.10
2018-03-14T21:26:15.498Z,11.05
2018-03-14T21:28:44.908Z,8.52
2018-03-14T21:31:14.379Z,9.68
2018-03-14T21:33:43.768Z,11.27
2018-03-14T21:36:13.181Z,10.05
2018-03-14T21:38:42.568Z,8.60
2018-03-14T21:41:11.991Z,8.70
2018-03-14T21:43:41.431Z,8.95
2018-03-14T21:46:10.836Z,8.57
2018-03-14T21:48:40.281Z,8.82
2018-03-14T21:51:10.174Z,9.55
2018-03-14T21:53:40.306Z,9.00
2018-03-14T21:56:09.724Z,14.48
2018-03-14T21:58:39.121Z,11.10
2018-03-14T22:01:08.550Z,8.98
2018-03-14T22:03:38.017Z,8.05
2018-03-14T22:06:07.467Z,10.48
2018-03-14T22:08:36.851Z,13.32
2018-03-14T22:11:06.322Z,11.95
2018-03-14T22:13:36.663Z,10.77
2018-03-14T22:16:06.055Z,9.57
2018-03-14T22:18:35.450Z,7.25
2018-03-14T22:21:04.888Z,15.25
2018-03-14T22:23:34.343Z,9.88
2018-03-14T22:26:03.748Z,8.70
2018-03-14T22:28:33.294Z,15.10
2018-03-14T22:31:02.686Z,10.77
2018-03-14T22:33:32.108Z,10.20
2018-03-14T22:36:01.547Z,10.60
2018-03-14T22:38:30.967Z,7.85
2018-03-14T22:41:00.355Z,12.23
2018-03-14T22:43:29.776Z,13.32
2018-03-14T22:45:59.209Z,12.27
2018-03-14T22:48:28.584Z,11.77
2018-03-14T22:50:58.008Z,9.27
2018-03-14T22:53:27.435Z,9.35
2018-03-14T22:55:56.871Z,10.70
2018-03-14T22:58:26.252Z,9.63
2018-03-14T23:00:55.688Z,12.68
2018-03-14T23:03:25.110Z,13.88
2018-03-14T23:05:54.517Z,10.05
2018-03-14T23:08:23.938Z,9.13
2018-03-14T23:10:53.366Z,10.75
2018-03-14T23:13:22.780Z,14.80
2018-03-14T23:15:52.205Z,8.20
2018-03-14T23:18:21.619Z,9.40
2018-03-14T23:20:51.047Z,8.85
2018-03-14T23:23:20.465Z,8.00
2018-03-14T23:25:49.899Z,10.20
2018-03-14T23:28:19.333Z,9.90
2018-03-14T23:30:48.753Z,10.10
2018-03-14T23:33:18.140Z,11.07
2018-03-14T23:35:47.571Z,10.95
2018-03-14T23:38:17.003Z,9.77
2018-03-14T23:40:46.392Z,9.27
2018-03-14T23:43:15.815Z,9.82
2018-03-14T23:45:45.207Z,12.68
2018-03-14T23:48:14.606Z,12.57
2018-03-14T23:50:44.005Z,11.32
2018-03-14T23:53:13.412Z,11.48
2018-03-14T23:55:42.854Z,10.13
2018-03-14T23:58:12.230Z,8.30
